PABR METAR and TAF weather

Enter ICAO airport designator
Station Type Date Time Source
PABR METAR 2022/11/27 07:53 UTC NOAA

PABR 270753Z AUTO 18007KT 10SM SCT014 OVC028 M19/M22 A3058 RMK AO2 SLP356 T11891217 TSNO


Station Type Date Time Source
PABR Decoded METAR 2022/11/27 07:53 UTC NOAA

POST ROGERS MEMORIAL AIRPORT, AK, United States (PABR) 71-17N 156-46W 10M
Nov 27, 2022 - 02:53 AM EST / 2022.11.27 0753 UTC
Wind: from the S (180 degrees) at 8 MPH (7 KT):0
Visibility: 10 mile(s):0
Sky conditions: overcast
Temperature: -2.0 F (-18.9 C)
Windchill: -16 F (-27 C):2
Dew Point: -7.1 F (-21.7 C)
Relative Humidity: 78%
Pressure (altimeter): 30.58 in. Hg (1035 hPa)
ob: PABR 270753Z AUTO 18007KT 10SM SCT014 OVC028 M19/M22 A3058 RMK AO2 SLP356 T11891217 TSNO
cycle: 8

Station Type Date Time Source
PABR TAF 2022/11/27 06:22 UTC NOAA

TAF PABR 270520Z 2706/2806 16006KT 4SM -SN BR OVC025
FM270900 VRB04KT 6SM -SN BR OVC025
FM271800 21007KT P6SM -SN SCT025 OVC050

Example: see airport list